createdAt,value
2018-11-28T00:01:14.394Z,29.07
2018-11-28T00:03:42.618Z,30.87
2018-11-28T00:06:11.784Z,31.50
2018-11-28T00:08:40.096Z,28.13
2018-11-28T00:11:08.384Z,32.20
2018-11-28T00:13:36.656Z,34.17
2018-11-28T00:16:05.827Z,33.07
2018-11-28T00:18:34.005Z,29.00
2018-11-28T00:21:02.213Z,29.43
2018-11-28T00:23:30.415Z,29.90
2018-11-28T00:25:58.921Z,35.57
2018-11-28T00:28:26.943Z,31.90
2018-11-28T00:30:55.731Z,35.30
2018-11-28T00:33:23.974Z,33.07
2018-11-28T00:35:52.320Z,29.77
2018-11-28T00:38:20.500Z,30.93
2018-11-28T00:40:48.785Z,29.07
2018-11-28T00:43:17.068Z,25.90
2018-11-28T00:45:45.318Z,33.27
2018-11-28T00:48:13.502Z,35.13
2018-11-28T00:50:41.757Z,34.20
2018-11-28T00:53:10.028Z,33.33
2018-11-28T00:55:39.325Z,36.00
2018-11-28T00:58:07.614Z,30.47
2018-11-28T01:00:35.845Z,32.07
2018-11-28T01:03:04.071Z,38.13
2018-11-28T01:05:32.245Z,34.90
2018-11-28T01:08:00.432Z,40.90
2018-11-28T01:10:28.639Z,39.73
2018-11-28T01:12:56.836Z,33.83
2018-11-28T01:15:25.004Z,36.07
2018-11-28T01:17:53.239Z,34.80
2018-11-28T01:20:22.728Z,34.13
2018-11-28T01:22:50.958Z,39.27
2018-11-28T01:25:20.808Z,29.77
2018-11-28T01:27:50.360Z,41.77
2018-11-28T01:30:21.860Z,41.30
2018-11-28T01:32:50.124Z,37.93
2018-11-28T01:35:19.260Z,40.67
2018-11-28T01:37:48.603Z,38.77
2018-11-28T01:40:19.652Z,35.90
2018-11-28T01:42:47.948Z,33.73
2018-11-28T01:45:17.094Z,33.03
2018-11-28T01:47:45.372Z,41.57
2018-11-28T01:50:14.429Z,38.60
2018-11-28T01:52:42.603Z,34.53
2018-11-28T01:55:12.514Z,39.83
2018-11-28T01:57:40.679Z,34.37
2018-11-28T02:00:11.424Z,32.53
2018-11-28T02:02:39.689Z,37.17
2018-11-28T02:05:08.798Z,35.33
2018-11-28T02:07:37.048Z,41.37
2018-11-28T02:10:11.607Z,34.10
2018-11-28T02:12:39.964Z,34.77
2018-11-28T02:15:10.834Z,28.60
2018-11-28T02:17:39.015Z,34.87
2018-11-28T02:20:10.204Z,34.40
2018-11-28T02:22:38.388Z,30.10
2018-11-28T02:25:07.692Z,34.30
2018-11-28T02:27:35.868Z,34.03
2018-11-28T02:30:05.492Z,33.27
2018-11-28T02:32:33.663Z,34.60
2018-11-28T02:35:01.849Z,34.70
2018-11-28T02:37:30.057Z,35.20
2018-11-28T02:39:58.267Z,32.77
2018-11-28T02:42:26.465Z,32.37
2018-11-28T02:44:54.661Z,32.70
2018-11-28T02:47:22.866Z,33.23
2018-11-28T02:49:51.063Z,29.47
2018-11-28T02:52:19.240Z,29.70
2018-11-28T02:54:47.445Z,36.77
2018-11-28T02:57:15.613Z,34.37
2018-11-28T02:59:43.827Z,32.30
2018-11-28T03:02:12.004Z,31.37
2018-11-28T03:04:40.189Z,34.93
2018-11-28T03:07:08.376Z,33.50
2018-11-28T03:09:36.585Z,27.63
2018-11-28T03:12:05.127Z,26.20
2018-11-28T03:14:33.323Z,32.00
2018-11-28T03:17:01.507Z,31.33
2018-11-28T03:19:29.694Z,33.10
2018-11-28T03:21:57.868Z,35.00
2018-11-28T03:24:26.080Z,32.53
2018-11-28T03:26:54.260Z,36.57
2018-11-28T03:29:22.459Z,32.60
2018-11-28T03:31:50.650Z,33.53
2018-11-28T03:34:18.836Z,30.33
2018-11-28T03:36:47.006Z,33.10
2018-11-28T03:39:15.184Z,30.83
2018-11-28T03:41:43.380Z,29.70
2018-11-28T03:44:11.557Z,29.80
2018-11-28T03:46:39.768Z,31.93
2018-11-28T03:49:07.952Z,33.37
2018-11-28T03:51:36.159Z,35.27
2018-11-28T03:54:04.425Z,28.90
2018-11-28T03:56:32.613Z,29.10
2018-11-28T03:59:00.814Z,33.57
2018-11-28T04:01:29.009Z,36.43
2018-11-28T04:03:57.212Z,27.97
2018-11-28T04:06:25.396Z,32.17
2018-11-28T04:08:53.584Z,32.17
2018-11-28T04:11:21.774Z,31.37
2018-11-28T04:13:49.964Z,33.83
2018-11-28T04:16:18.156Z,34.37
2018-11-28T04:18:46.339Z,34.37
2018-11-28T04:21:14.534Z,34.10
2018-11-28T04:23:42.701Z,36.00
2018-11-28T04:26:10.900Z,27.33
2018-11-28T04:28:39.219Z,36.23
2018-11-28T04:31:07.424Z,34.07
2018-11-28T04:33:35.647Z,27.63
2018-11-28T04:36:03.905Z,31.33
2018-11-28T04:38:32.089Z,33.27
2018-11-28T04:41:00.297Z,30.93
2018-11-28T04:43:28.493Z,27.97
2018-11-28T04:45:56.745Z,31.07
2018-11-28T04:48:24.939Z,33.80
2018-11-28T04:50:53.148Z,27.50
2018-11-28T04:53:21.342Z,29.57
2018-11-28T04:55:49.538Z,29.10
2018-11-28T04:58:17.733Z,32.23
2018-11-28T05:00:46.020Z,31.97
2018-11-28T05:03:14.204Z,26.83
2018-11-28T05:05:42.397Z,31.70
2018-11-28T05:08:10.604Z,28.07
2018-11-28T05:10:38.860Z,30.80
2018-11-28T05:13:07.065Z,31.53
2018-11-28T05:15:35.267Z,38.20
2018-11-28T05:18:03.460Z,30.80
2018-11-28T05:20:33.688Z,32.23
2018-11-28T05:23:02.345Z,32.10
2018-11-28T05:25:30.674Z,29.60
2018-11-28T05:27:59.308Z,31.17
2018-11-28T05:30:29.417Z,26.07
2018-11-28T05:32:57.630Z,29.17
2018-11-28T05:35:29.570Z,35.83
2018-11-28T05:37:57.808Z,25.67
2018-11-28T05:40:26.847Z,32.67
2018-11-28T05:42:55.163Z,29.03
2018-11-28T05:45:23.400Z,27.10
2018-11-28T05:47:51.643Z,26.50
2018-11-28T05:50:21.681Z,31.07
2018-11-28T05:52:49.967Z,30.27
2018-11-28T05:55:19.265Z,30.80
2018-11-28T05:57:47.534Z,28.93
2018-11-28T06:00:37.152Z,29.03
2018-11-28T06:03:06.785Z,32.27
2018-11-28T06:05:35.037Z,28.57
2018-11-28T06:08:03.269Z,32.70
2018-11-28T06:10:31.468Z,29.43
2018-11-28T06:12:59.684Z,33.80
2018-11-28T06:15:27.888Z,29.50
2018-11-28T06:17:56.115Z,31.33
2018-11-28T06:20:24.356Z,30.30
2018-11-28T06:22:52.583Z,30.67
2018-11-28T06:25:20.775Z,28.93
2018-11-28T06:27:49.010Z,28.77
2018-11-28T06:30:19.092Z,30.07
2018-11-28T06:32:51.260Z,25.50
2018-11-28T06:35:15.664Z,26.50
2018-11-28T06:37:43.999Z,26.60
2018-11-28T06:40:14.256Z,32.30
2018-11-28T06:42:42.712Z,31.03
2018-11-28T06:45:12.084Z,24.53
2018-11-28T06:47:40.768Z,30.43
2018-11-28T06:50:13.892Z,29.57
2018-11-28T06:52:42.471Z,30.97
2018-11-28T06:55:12.704Z,28.73
2018-11-28T06:57:40.925Z,28.97
2018-11-28T07:00:11.628Z,30.87
2018-11-28T07:02:39.888Z,32.77
2018-11-28T07:05:08.114Z,41.03
2018-11-28T07:07:36.314Z,32.53
2018-11-28T07:10:05.681Z,28.40
2018-11-28T07:12:35.180Z,30.87
2018-11-28T07:15:04.640Z,30.87
2018-11-28T07:17:33.074Z,31.77
2018-11-28T07:20:01.597Z,29.93
2018-11-28T07:22:30.088Z,29.13
2018-11-28T07:24:58.606Z,32.70
2018-11-28T07:27:27.165Z,30.27
2018-11-28T07:29:55.708Z,29.63
2018-11-28T07:32:24.842Z,26.57
2018-11-28T07:34:54.060Z,25.70
2018-11-28T07:37:22.565Z,29.23
2018-11-28T07:39:51.023Z,34.43
2018-11-28T07:42:19.541Z,27.33
2018-11-28T07:44:48.503Z,31.40
2018-11-28T07:47:17.057Z,34.10
2018-11-28T07:49:45.582Z,28.70
2018-11-28T07:52:14.228Z,33.53
2018-11-28T07:54:42.763Z,28.17
2018-11-28T07:57:11.444Z,28.50
2018-11-28T07:59:40.285Z,30.73
2018-11-28T08:02:08.478Z,30.77
2018-11-28T08:04:37.135Z,28.93
2018-11-28T08:07:05.902Z,27.93
2018-11-28T08:09:35.336Z,29.87
2018-11-28T08:12:04.016Z,33.67
2018-11-28T08:14:32.547Z,33.40
2018-11-28T08:17:02.302Z,33.73
2018-11-28T08:19:30.667Z,33.77
2018-11-28T08:21:59.220Z,35.13
2018-11-28T08:24:27.411Z,32.63
2018-11-28T08:26:55.595Z,34.20
2018-11-28T08:29:24.036Z,36.10
2018-11-28T08:31:52.251Z,28.60
2018-11-28T08:34:20.444Z,28.80
2018-11-28T08:36:48.620Z,29.67
2018-11-28T08:39:16.879Z,27.93
2018-11-28T08:41:45.099Z,28.93
2018-11-28T08:44:13.300Z,31.93
2018-11-28T08:46:41.536Z,27.17
2018-11-28T08:49:09.862Z,33.77
2018-11-28T08:51:38.192Z,28.30
2018-11-28T08:54:06.563Z,28.67
2018-11-28T08:56:35.006Z,28.70
2018-11-28T08:59:03.571Z,29.00
2018-11-28T09:01:32.147Z,28.63
2018-11-28T09:04:00.345Z,30.37
2018-11-28T09:06:28.609Z,26.80
2018-11-28T09:08:56.999Z,25.60
2018-11-28T09:11:25.196Z,28.47
2018-11-28T09:13:53.509Z,27.53
2018-11-28T09:16:21.756Z,29.90
2018-11-28T09:18:50.100Z,28.77
2018-11-28T09:21:18.672Z,33.00
2018-11-28T09:23:47.843Z,23.17
2018-11-28T09:26:19.389Z,22.80
2018-11-28T09:28:48.112Z,26.90
2018-11-28T09:31:19.824Z,24.33
2018-11-28T09:33:48.045Z,27.90
2018-11-28T09:36:16.231Z,30.83
2018-11-28T09:38:44.841Z,26.07
2018-11-28T09:41:13.193Z,26.93
2018-11-28T09:43:41.418Z,28.20
2018-11-28T09:46:10.038Z,28.27
2018-11-28T09:48:38.313Z,26.53
2018-11-28T09:51:07.503Z,28.07
2018-11-28T09:53:36.769Z,25.77
2018-11-28T09:56:05.223Z,26.50
2018-11-28T09:58:33.430Z,28.50
2018-11-28T10:01:01.645Z,22.30
2018-11-28T10:03:29.829Z,25.03
2018-11-28T10:05:58.025Z,25.87
2018-11-28T10:08:26.224Z,24.97
2018-11-28T10:10:54.432Z,27.57
2018-11-28T10:13:22.667Z,26.90
2018-11-28T10:15:50.963Z,22.97
2018-11-28T10:18:19.292Z,29.37
2018-11-28T10:20:47.828Z,25.17
2018-11-28T10:23:16.031Z,24.20
2018-11-28T10:25:44.204Z,21.83
2018-11-28T10:28:12.416Z,22.57
2018-11-28T10:30:40.580Z,25.00
2018-11-28T10:33:09.889Z,27.10
2018-11-28T10:35:38.645Z,23.53
2018-11-28T10:38:07.312Z,22.30
2018-11-28T10:40:35.715Z,18.73
2018-11-28T10:43:04.084Z,22.53
2018-11-28T10:45:32.995Z,21.93
2018-11-28T10:48:01.262Z,23.50
2018-11-28T10:50:29.536Z,22.13
2018-11-28T10:52:57.781Z,23.57
2018-11-28T10:55:26.660Z,17.93
2018-11-28T10:57:54.891Z,19.17
2018-11-28T11:00:31.543Z,24.07
2018-11-28T11:03:05.567Z,23.07
2018-11-28T11:05:39.200Z,18.83
2018-11-28T11:08:12.872Z,23.33
2018-11-28T11:10:46.674Z,19.37
2018-11-28T11:13:20.551Z,22.40
2018-11-28T11:15:54.171Z,23.17
2018-11-28T11:18:22.367Z,24.87
2018-11-28T11:20:50.729Z,21.00
2018-11-28T11:23:19.067Z,19.60
2018-11-28T11:25:47.468Z,23.83
2018-11-28T11:28:15.876Z,22.97
2018-11-28T11:30:44.478Z,20.63
2018-11-28T11:33:12.755Z,23.23
2018-11-28T11:35:41.251Z,21.97
2018-11-28T11:38:09.455Z,19.37
2018-11-28T11:40:37.692Z,19.97
2018-11-28T11:43:06.208Z,21.17
2018-11-28T11:45:34.536Z,20.00
2018-11-28T11:48:02.792Z,20.90
2018-11-28T11:50:30.992Z,24.13
2018-11-28T11:52:59.224Z,18.20
2018-11-28T11:55:27.442Z,23.00
2018-11-28T11:57:55.789Z,21.00
2018-11-28T12:00:25.954Z,20.43
2018-11-28T12:03:02.587Z,22.87
2018-11-28T12:05:31.298Z,17.60
2018-11-28T12:07:59.248Z,18.80
2018-11-28T12:10:27.790Z,20.30
2018-11-28T12:12:56.179Z,21.90
2018-11-28T12:15:24.376Z,21.43
2018-11-28T12:17:53.272Z,23.23
2018-11-28T12:20:29.500Z,21.20
2018-11-28T12:22:57.802Z,20.80
2018-11-28T12:25:26.047Z,22.43
2018-11-28T12:27:54.549Z,17.37
2018-11-28T12:30:22.770Z,21.63
2018-11-28T12:32:51.000Z,18.60
2018-11-28T12:35:19.468Z,20.77
2018-11-28T12:37:47.748Z,21.17
2018-11-28T12:40:16.629Z,21.73
2018-11-28T12:42:47.573Z,18.10
2018-11-28T12:45:16.832Z,20.13
2018-11-28T12:47:46.092Z,18.00
2018-11-28T12:50:16.894Z,18.30
2018-11-28T12:52:45.173Z,19.00
2018-11-28T12:55:13.456Z,18.77
2018-11-28T12:57:41.760Z,19.33
2018-11-28T13:00:12.684Z,21.57
2018-11-28T13:02:40.917Z,15.53
2018-11-28T13:05:11.937Z,20.23
2018-11-28T13:07:40.368Z,16.97
2018-11-28T13:10:13.811Z,16.30
2018-11-28T13:12:42.068Z,19.10
2018-11-28T13:15:12.488Z,17.87
2018-11-28T13:17:40.777Z,18.67
2018-11-28T13:20:10.446Z,18.10
2018-11-28T13:22:38.751Z,16.93
2018-11-28T13:25:09.614Z,17.70
2018-11-28T13:27:37.849Z,17.67
2018-11-28T13:30:17.088Z,16.93
2018-11-28T13:32:46.250Z,17.17
2018-11-28T13:35:15.547Z,15.73
2018-11-28T13:37:44.923Z,16.50
2018-11-28T13:40:14.253Z,16.20
2018-11-28T13:42:42.884Z,18.10
2018-11-28T13:45:13.510Z,17.10
2018-11-28T13:47:43.316Z,16.30
2018-11-28T13:50:12.561Z,15.80
2018-11-28T13:52:40.772Z,16.37
2018-11-28T13:57:43.478Z,19.87
2018-11-28T14:00:11.787Z,16.10
2018-11-28T14:02:39.999Z,18.23
2018-11-28T14:05:09.926Z,19.27
2018-11-28T14:07:38.248Z,16.40
2018-11-28T14:10:10.148Z,15.17
2018-11-28T14:12:38.488Z,15.37
2018-11-28T14:15:10.501Z,13.90
2018-11-28T14:17:38.912Z,20.03
2018-11-28T14:20:09.008Z,15.80
2018-11-28T14:22:38.189Z,13.67
2018-11-28T14:25:08.164Z,16.33
2018-11-28T14:27:36.456Z,15.90
2018-11-28T14:30:10.501Z,15.40
2018-11-28T14:32:38.998Z,16.50
2018-11-28T14:35:08.957Z,14.77
2018-11-28T14:37:37.219Z,16.60
2018-11-28T14:40:14.536Z,15.47
2018-11-28T14:42:44.924Z,14.47
2018-11-28T14:45:15.400Z,14.37
2018-11-28T14:47:43.999Z,14.97
2018-11-28T14:50:21.052Z,16.27
2018-11-28T14:52:49.295Z,16.23
2018-11-28T14:55:19.178Z,13.50
2018-11-28T14:57:47.723Z,14.00
2018-11-28T15:00:17.250Z,15.73
2018-11-28T15:02:46.356Z,15.87
2018-11-28T15:05:21.252Z,15.37
2018-11-28T15:07:51.028Z,14.33
2018-11-28T15:10:23.712Z,15.00
2018-11-28T15:12:51.891Z,14.97
2018-11-28T15:15:20.129Z,17.07
2018-11-28T15:17:48.327Z,13.60
2018-11-28T15:20:16.473Z,13.03
2018-11-28T15:22:44.660Z,14.90
2018-11-28T15:25:12.832Z,16.57
2018-11-28T15:27:41.057Z,13.10
2018-11-28T15:30:09.384Z,12.70
2018-11-28T15:32:37.580Z,14.07
2018-11-28T15:35:05.860Z,12.63
2018-11-28T15:37:34.031Z,15.37
2018-11-28T15:40:02.191Z,13.93
2018-11-28T15:42:30.355Z,14.43
2018-11-28T15:44:58.528Z,13.43
2018-11-28T15:47:26.769Z,12.57
2018-11-28T15:49:54.983Z,17.47
2018-11-28T15:52:23.175Z,13.93
2018-11-28T15:54:51.357Z,14.10
2018-11-28T15:57:19.544Z,15.83
2018-11-28T15:59:47.731Z,13.73
2018-11-28T16:02:15.905Z,17.50
2018-11-28T16:04:44.180Z,14.60
2018-11-28T16:07:12.348Z,14.03
2018-11-28T16:09:46.064Z,16.33
2018-11-28T16:12:14.230Z,14.23
2018-11-28T16:14:42.431Z,13.57
2018-11-28T16:17:10.638Z,15.77
2018-11-28T16:19:38.824Z,15.07
2018-11-28T16:22:07.023Z,12.37
2018-11-28T16:24:35.204Z,14.77
2018-11-28T16:27:03.399Z,19.43
2018-11-28T16:29:31.592Z,12.70
2018-11-28T16:31:59.776Z,16.40
2018-11-28T16:34:27.993Z,14.67
2018-11-28T16:36:56.223Z,17.53
2018-11-28T16:39:24.404Z,14.43
2018-11-28T16:41:52.595Z,15.13
2018-11-28T16:44:20.784Z,11.43
2018-11-28T16:46:48.973Z,15.57
2018-11-28T16:49:17.158Z,17.33
2018-11-28T16:51:45.365Z,14.83
2018-11-28T16:54:13.547Z,15.80
2018-11-28T16:56:41.737Z,13.10
2018-11-28T16:59:09.920Z,15.40
2018-11-28T17:01:38.107Z,15.93
2018-11-28T17:04:06.348Z,16.00
2018-11-28T17:06:34.532Z,17.60
2018-11-28T17:09:02.720Z,16.50
2018-11-28T17:11:30.956Z,14.67
2018-11-28T17:13:59.144Z,15.27
2018-11-28T17:16:27.312Z,15.47
2018-11-28T17:18:55.507Z,17.60
2018-11-28T17:21:23.742Z,12.87
2018-11-28T17:23:51.931Z,13.97
2018-11-28T17:26:20.190Z,13.77
2018-11-28T17:28:48.402Z,16.37
2018-11-28T17:31:16.694Z,14.97
2018-11-28T17:33:44.819Z,17.83
2018-11-28T17:36:13.008Z,15.43
2018-11-28T17:38:41.184Z,17.90
2018-11-28T17:41:09.381Z,16.33
2018-11-28T17:43:37.573Z,15.17
2018-11-28T17:46:05.782Z,15.43
2018-11-28T17:48:33.974Z,18.33
2018-11-28T17:51:02.162Z,20.27
2018-11-28T17:53:30.401Z,20.07
2018-11-28T17:55:59.072Z,18.10
2018-11-28T17:58:27.255Z,18.43
2018-11-28T18:00:55.562Z,19.40
2018-11-28T18:03:23.731Z,14.43
2018-11-28T18:05:51.920Z,18.87
2018-11-28T18:08:20.088Z,17.43
2018-11-28T18:10:48.255Z,16.60
2018-11-28T18:13:17.472Z,18.83
2018-11-28T18:15:50.983Z,20.57
2018-11-28T18:18:20.483Z,23.17
2018-11-28T18:20:50.272Z,24.33
2018-11-28T18:23:16.906Z,22.53
2018-11-28T18:25:45.827Z,18.80
2018-11-28T18:28:14.004Z,20.80
2018-11-28T18:30:42.171Z,19.80
2018-11-28T18:33:11.463Z,19.17
2018-11-28T18:35:39.739Z,17.90
2018-11-28T18:38:07.944Z,20.57
2018-11-28T18:40:36.147Z,20.03
2018-11-28T18:43:04.738Z,19.07
2018-11-28T18:45:34.201Z,21.97
2018-11-28T18:48:02.421Z,22.43
2018-11-28T18:50:30.672Z,22.20
2018-11-28T18:52:58.887Z,18.63
2018-11-28T18:55:27.256Z,20.73
2018-11-28T18:57:56.189Z,20.57
2018-11-28T19:00:25.471Z,18.63
2018-11-28T19:02:54.167Z,19.60
2018-11-28T19:05:22.360Z,21.13
2018-11-28T19:07:50.557Z,23.60
2018-11-28T19:10:26.015Z,24.63
2018-11-28T19:12:48.670Z,20.13
2018-11-28T19:15:20.061Z,19.77
2018-11-28T19:17:48.725Z,20.30
2018-11-28T19:20:18.037Z,18.87
2018-11-28T19:22:46.832Z,21.47
2018-11-28T19:25:16.944Z,19.67
2018-11-28T19:27:45.636Z,18.97
2018-11-28T19:30:21.085Z,19.67
2018-11-28T19:32:49.292Z,20.03
2018-11-28T19:35:17.497Z,21.93
2018-11-28T19:37:45.705Z,21.00
2018-11-28T19:40:25.243Z,21.70
2018-11-28T19:42:53.463Z,19.90
2018-11-28T19:45:21.901Z,18.63
2018-11-28T19:47:50.113Z,18.20
2018-11-28T19:50:20.077Z,20.27
2018-11-28T19:52:48.278Z,22.77
2018-11-28T19:55:16.447Z,22.77
2018-11-28T19:57:44.636Z,20.00
2018-11-28T20:00:15.845Z,23.83
2018-11-28T20:02:44.645Z,23.10
2018-11-28T20:05:12.863Z,22.47
2018-11-28T20:07:43.242Z,24.13
2018-11-28T20:10:13.561Z,20.77
2018-11-28T20:12:41.752Z,21.13
2018-11-28T20:15:12.477Z,20.77
2018-11-28T20:17:40.660Z,18.57
2018-11-28T20:20:10.352Z,19.70
2018-11-28T20:22:38.556Z,21.90
2018-11-28T20:25:08.719Z,18.70
2018-11-28T20:27:37.005Z,20.10
2018-11-28T20:30:10.076Z,20.13
2018-11-28T20:32:38.392Z,20.33
2018-11-28T20:35:07.716Z,22.87
2018-11-28T20:37:35.928Z,21.97
2018-11-28T20:40:06.727Z,21.30
2018-11-28T20:42:34.937Z,18.77
2018-11-28T20:45:03.137Z,17.80
2018-11-28T20:47:31.388Z,17.57
2018-11-28T20:49:59.617Z,17.17
2018-11-28T20:52:27.792Z,16.83
2018-11-28T20:54:56.010Z,18.93
2018-11-28T20:57:24.200Z,15.83
2018-11-28T20:59:52.383Z,15.17
2018-11-28T21:02:20.626Z,19.13
2018-11-28T21:04:48.806Z,16.57
2018-11-28T21:07:17.100Z,17.10
2018-11-28T21:09:50.787Z,16.70
2018-11-28T21:12:19.000Z,15.80
2018-11-28T21:14:47.189Z,18.33
2018-11-28T21:17:15.445Z,16.90
2018-11-28T21:19:43.701Z,17.40
2018-11-28T21:22:11.920Z,16.37
2018-11-28T21:24:40.205Z,16.17
2018-11-28T21:27:08.454Z,16.57
2018-11-28T21:29:36.677Z,16.53
2018-11-28T21:32:04.919Z,14.20
2018-11-28T21:34:33.196Z,12.63
2018-11-28T21:37:01.369Z,12.37
2018-11-28T21:39:29.615Z,13.23
2018-11-28T21:41:57.790Z,14.30
2018-11-28T21:44:26.074Z,12.60
2018-11-28T21:46:54.212Z,14.90
2018-11-28T21:49:22.455Z,13.77
2018-11-28T21:51:50.655Z,11.43
2018-11-28T21:54:18.855Z,12.67
2018-11-28T21:56:47.049Z,13.13
2018-11-28T21:59:15.233Z,13.53
2018-11-28T22:01:43.408Z,13.77
2018-11-28T22:04:11.620Z,11.90
2018-11-28T22:06:39.786Z,13.60
2018-11-28T22:09:09.141Z,13.87
2018-11-28T22:11:37.421Z,14.83
2018-11-28T22:14:06.109Z,15.20
2018-11-28T22:16:34.292Z,13.60
2018-11-28T22:19:02.501Z,11.20
2018-11-28T22:21:30.704Z,13.23
2018-11-28T22:23:58.894Z,12.43
2018-11-28T22:26:27.093Z,10.73
2018-11-28T22:28:55.304Z,11.30
2018-11-28T22:31:23.473Z,13.17
2018-11-28T22:33:51.679Z,11.63
2018-11-28T22:36:19.872Z,11.80
2018-11-28T22:38:48.059Z,10.43
2018-11-28T22:41:16.260Z,11.00
2018-11-28T22:43:44.461Z,10.77
2018-11-28T22:46:12.643Z,8.47
2018-11-28T22:48:40.866Z,9.47
2018-11-28T22:51:09.056Z,10.80
2018-11-28T22:53:37.296Z,10.00
2018-11-28T22:56:05.587Z,10.03
2018-11-28T22:58:33.776Z,11.13
2018-11-28T23:01:07.972Z,10.43
2018-11-28T23:03:36.237Z,9.23
2018-11-28T23:06:04.755Z,10.03
2018-11-28T23:08:33.185Z,10.53
2018-11-28T23:11:01.448Z,8.33
2018-11-28T23:13:29.680Z,9.67
2018-11-28T23:15:57.864Z,12.33
2018-11-28T23:18:26.057Z,10.07
2018-11-28T23:20:54.244Z,10.17
2018-11-28T23:23:22.456Z,9.93
2018-11-28T23:25:50.648Z,10.30
2018-11-28T23:28:18.842Z,9.13
2018-11-28T23:30:47.028Z,11.10
2018-11-28T23:33:16.186Z,11.63
2018-11-28T23:35:43.439Z,9.60
2018-11-28T23:38:11.643Z,11.77
2018-11-28T23:40:39.829Z,10.50
2018-11-28T23:43:08.005Z,10.77
2018-11-28T23:45:36.209Z,7.97
2018-11-28T23:48:04.524Z,10.13
2018-11-28T23:50:32.724Z,8.37
2018-11-28T23:53:00.911Z,9.17
2018-11-28T23:55:30.272Z,9.97
2018-11-28T23:57:58.467Z,10.97
